sensor_id;sensor_type;location;lat;lon;timestamp;temperature;humidity
792;DHT22;379;49.022;12.148;2023-04-01T00:01:05;7.60;99.90
792;DHT22;379;49.022;12.148;2023-04-01T00:03:34;7.60;99.90
792;DHT22;379;49.022;12.148;2023-04-01T00:06:01;7.60;99.90
792;DHT22;379;49.022;12.148;2023-04-01T00:08:29;7.60;99.90
792;DHT22;379;49.022;12.148;2023-04-01T00:10:55;7.60;99.90
792;DHT22;379;49.022;12.148;2023-04-01T00:13:23;7.70;99.90
792;DHT22;379;49.022;12.148;2023-04-01T00:15:51;7.80;99.90
792;DHT22;379;49.022;12.148;2023-04-01T00:18:18;7.80;99.90
792;DHT22;379;49.022;12.148;2023-04-01T00:20:48;7.90;99.90
792;DHT22;379;49.022;12.148;2023-04-01T00:23:16;7.90;99.90
792;DHT22;379;49.022;12.148;2023-04-01T00:25:44;8.00;99.90
792;DHT22;379;49.022;12.148;2023-04-01T00:28:13;8.00;99.90
792;DHT22;379;49.022;12.148;2023-04-01T00:30:40;8.10;99.90
792;DHT22;379;49.022;12.148;2023-04-01T00:33:06;8.10;99.90
792;DHT22;379;49.022;12.148;2023-04-01T00:35:33;8.10;99.90
792;DHT22;379;49.022;12.148;2023-04-01T00:38:01;8.10;99.90
792;DHT22;379;49.022;12.148;2023-04-01T00:40:30;8.20;99.90
792;DHT22;379;49.022;12.148;2023-04-01T00:42:58;8.20;99.90
792;DHT22;379;49.022;12.148;2023-04-01T00:45:29;8.20;99.90
792;DHT22;379;49.022;12.148;2023-04-01T00:48:00;8.20;99.90
792;DHT22;379;49.022;12.148;2023-04-01T00:50:28;8.10;99.90
792;DHT22;379;49.022;12.148;2023-04-01T00:52:57;8.00;99.90
792;DHT22;379;49.022;12.148;2023-04-01T00:55:27;8.00;99.90
792;DHT22;379;49.022;12.148;2023-04-01T00:57:57;8.00;99.90
792;DHT22;379;49.022;12.148;2023-04-01T01:00:24;7.90;99.90
792;DHT22;379;49.022;12.148;2023-04-01T01:02:52;7.80;99.90
792;DHT22;379;49.022;12.148;2023-04-01T01:05:22;7.80;99.90
792;DHT22;379;49.022;12.148;2023-04-01T01:07:56;7.80;99.90
792;DHT22;379;49.022;12.148;2023-04-01T01:10:32;7.80;99.90
792;DHT22;379;49.022;12.148;2023-04-01T01:13:05;7.90;99.90
792;DHT22;379;49.022;12.148;2023-04-01T01:15:39;7.90;99.90
792;DHT22;379;49.022;12.148;2023-04-01T01:18:13;7.90;99.90
792;DHT22;379;49.022;12.148;2023-04-01T01:24:17;7.80;99.90
792;DHT22;379;49.022;12.148;2023-04-01T01:26:58;7.70;99.90
792;DHT22;379;49.022;12.148;2023-04-01T01:29:40;7.70;99.90
792;DHT22;379;49.022;12.148;2023-04-01T01:32:18;7.70;99.90
792;DHT22;379;49.022;12.148;2023-04-01T01:34:50;7.80;99.90
792;DHT22;379;49.022;12.148;2023-04-01T01:37:24;7.80;99.90
792;DHT22;379;49.022;12.148;2023-04-01T01:39:54;7.90;99.90
792;DHT22;379;49.022;12.148;2023-04-01T01:42:24;7.90;99.90
792;DHT22;379;49.022;12.148;2023-04-01T01:44:54;7.90;99.90
792;DHT22;379;49.022;12.148;2023-04-01T01:47:23;7.90;99.90
792;DHT22;379;49.022;12.148;2023-04-01T01:49:52;7.90;99.90
792;DHT22;379;49.022;12.148;2023-04-01T01:52:19;8.00;99.90
792;DHT22;379;49.022;12.148;2023-04-01T01:54:50;8.00;99.90
792;DHT22;379;49.022;12.148;2023-04-01T01:57:18;8.00;99.90
792;DHT22;379;49.022;12.148;2023-04-01T01:59:47;8.00;99.90
792;DHT22;379;49.022;12.148;2023-04-01T02:02:15;8.00;99.90
792;DHT22;379;49.022;12.148;2023-04-01T02:04:44;8.00;99.90
792;DHT22;379;49.022;12.148;2023-04-01T02:07:16;8.00;99.90
792;DHT22;379;49.022;12.148;2023-04-01T02:09:45;8.00;99.90
792;DHT22;379;49.022;12.148;2023-04-01T02:12:15;8.00;99.90
792;DHT22;379;49.022;12.148;2023-04-01T02:14:47;8.00;99.90
792;DHT22;379;49.022;12.148;2023-04-01T02:17:18;8.00;99.90
792;DHT22;379;49.022;12.148;2023-04-01T02:19:48;8.00;99.90
792;DHT22;379;49.022;12.148;2023-04-01T02:22:20;8.00;99.90
792;DHT22;379;49.022;12.148;2023-04-01T02:24:49;8.00;99.90
792;DHT22;379;49.022;12.148;2023-04-01T02:27:18;7.90;99.90
792;DHT22;379;49.022;12.148;2023-04-01T02:29:46;7.90;99.90
792;DHT22;379;49.022;12.148;2023-04-01T02:32:13;7.90;99.90
792;DHT22;379;49.022;12.148;2023-04-01T02:34:41;7.80;99.90
792;DHT22;379;49.022;12.148;2023-04-01T02:37:08;7.80;99.90
792;DHT22;379;49.022;12.148;2023-04-01T02:39:36;7.80;99.90
792;DHT22;379;49.022;12.148;2023-04-01T02:42:03;7.80;99.90
792;DHT22;379;49.022;12.148;2023-04-01T02:44:31;7.80;99.90
792;DHT22;379;49.022;12.148;2023-04-01T02:46:58;7.80;99.90
792;DHT22;379;49.022;12.148;2023-04-01T02:49:25;7.80;99.90
792;DHT22;379;49.022;12.148;2023-04-01T02:51:51;7.80;99.90
792;DHT22;379;49.022;12.148;2023-04-01T02:54:18;7.80;99.90
792;DHT22;379;49.022;12.148;2023-04-01T02:56:45;7.80;99.90
792;DHT22;379;49.022;12.148;2023-04-01T02:59:12;7.90;99.90
792;DHT22;379;49.022;12.148;2023-04-01T03:01:40;7.90;99.90
792;DHT22;379;49.022;12.148;2023-04-01T03:04:07;7.90;99.90
792;DHT22;379;49.022;12.148;2023-04-01T03:06:33;7.80;99.90
792;DHT22;379;49.022;12.148;2023-04-01T03:09:00;7.90;99.90
792;DHT22;379;49.022;12.148;2023-04-01T03:11:27;7.90;99.90
792;DHT22;379;49.022;12.148;2023-04-01T03:13:54;7.90;99.90
792;DHT22;379;49.022;12.148;2023-04-01T03:16:21;7.90;99.90
792;DHT22;379;49.022;12.148;2023-04-01T03:18:49;7.90;99.90
792;DHT22;379;49.022;12.148;2023-04-01T03:21:19;7.90;99.90
792;DHT22;379;49.022;12.148;2023-04-01T03:23:46;7.90;99.90
792;DHT22;379;49.022;12.148;2023-04-01T03:26:13;7.90;99.90
792;DHT22;379;49.022;12.148;2023-04-01T03:28:40;7.90;99.90
792;DHT22;379;49.022;12.148;2023-04-01T03:31:07;7.90;99.90
792;DHT22;379;49.022;12.148;2023-04-01T03:33:34;7.80;99.90
792;DHT22;379;49.022;12.148;2023-04-01T03:36:02;7.80;99.90
792;DHT22;379;49.022;12.148;2023-04-01T03:38:31;7.80;99.90
792;DHT22;379;49.022;12.148;2023-04-01T03:40:58;7.80;99.90
792;DHT22;379;49.022;12.148;2023-04-01T03:43:25;7.80;99.90
792;DHT22;379;49.022;12.148;2023-04-01T03:45:52;7.90;99.90
792;DHT22;379;49.022;12.148;2023-04-01T03:48:20;7.80;99.90
792;DHT22;379;49.022;12.148;2023-04-01T03:50:47;7.80;99.90
792;DHT22;379;49.022;12.148;2023-04-01T03:53:15;7.80;99.90
792;DHT22;379;49.022;12.148;2023-04-01T03:55:42;7.80;99.90
792;DHT22;379;49.022;12.148;2023-04-01T03:58:09;7.80;99.90
792;DHT22;379;49.022;12.148;2023-04-01T04:00:35;7.80;99.90
792;DHT22;379;49.022;12.148;2023-04-01T04:03:02;7.80;99.90
792;DHT22;379;49.022;12.148;2023-04-01T04:05:29;7.80;99.90
792;DHT22;379;49.022;12.148;2023-04-01T04:07:56;7.80;99.90
792;DHT22;379;49.022;12.148;2023-04-01T04:10:24;7.70;99.90
792;DHT22;379;49.022;12.148;2023-04-01T04:12:52;7.70;99.90
792;DHT22;379;49.022;12.148;2023-04-01T04:15:18;7.60;99.90
792;DHT22;379;49.022;12.148;2023-04-01T04:17:46;7.60;99.90
792;DHT22;379;49.022;12.148;2023-04-01T04:20:13;7.50;99.90
792;DHT22;379;49.022;12.148;2023-04-01T04:22:40;7.50;99.90
792;DHT22;379;49.022;12.148;2023-04-01T04:25:07;7.50;99.90
792;DHT22;379;49.022;12.148;2023-04-01T04:27:36;7.50;99.90
792;DHT22;379;49.022;12.148;2023-04-01T04:30:04;7.50;99.90
792;DHT22;379;49.022;12.148;2023-04-01T04:32:31;7.50;99.90
792;DHT22;379;49.022;12.148;2023-04-01T04:34:58;7.40;99.90
792;DHT22;379;49.022;12.148;2023-04-01T04:37:24;7.40;99.90
792;DHT22;379;49.022;12.148;2023-04-01T04:39:52;7.40;99.90
792;DHT22;379;49.022;12.148;2023-04-01T04:42:18;7.50;99.90
792;DHT22;379;49.022;12.148;2023-04-01T04:44:47;7.60;99.90
792;DHT22;379;49.022;12.148;2023-04-01T04:47:13;7.60;99.90
792;DHT22;379;49.022;12.148;2023-04-01T04:49:40;7.50;99.90
792;DHT22;379;49.022;12.148;2023-04-01T04:52:07;7.40;99.90
792;DHT22;379;49.022;12.148;2023-04-01T04:54:33;7.40;99.90
792;DHT22;379;49.022;12.148;2023-04-01T04:57:00;7.40;99.90
792;DHT22;379;49.022;12.148;2023-04-01T04:59:27;7.30;99.90
792;DHT22;379;49.022;12.148;2023-04-01T05:01:55;7.20;99.90
792;DHT22;379;49.022;12.148;2023-04-01T05:04:21;7.00;99.90
792;DHT22;379;49.022;12.148;2023-04-01T05:06:48;6.80;99.90
792;DHT22;379;49.022;12.148;2023-04-01T05:09:15;6.70;99.90
792;DHT22;379;49.022;12.148;2023-04-01T05:11:42;6.60;99.90
792;DHT22;379;49.022;12.148;2023-04-01T05:14:12;6.60;99.90
792;DHT22;379;49.022;12.148;2023-04-01T05:16:39;6.60;99.90
792;DHT22;379;49.022;12.148;2023-04-01T05:19:07;6.60;99.90
792;DHT22;379;49.022;12.148;2023-04-01T05:21:34;6.70;99.90
792;DHT22;379;49.022;12.148;2023-04-01T05:24:01;6.80;99.90
792;DHT22;379;49.022;12.148;2023-04-01T05:26:27;6.90;99.90
792;DHT22;379;49.022;12.148;2023-04-01T05:28:54;7.00;99.90
792;DHT22;379;49.022;12.148;2023-04-01T05:31:21;7.20;99.90
792;DHT22;379;49.022;12.148;2023-04-01T05:33:49;7.30;99.90
792;DHT22;379;49.022;12.148;2023-04-01T05:36:17;7.40;99.90
792;DHT22;379;49.022;12.148;2023-04-01T05:38:44;7.50;99.90
792;DHT22;379;49.022;12.148;2023-04-01T05:41:13;7.60;99.90
792;DHT22;379;49.022;12.148;2023-04-01T05:43:40;7.70;99.90
792;DHT22;379;49.022;12.148;2023-04-01T05:46:07;7.80;99.90
792;DHT22;379;49.022;12.148;2023-04-01T05:48:35;7.80;99.90
792;DHT22;379;49.022;12.148;2023-04-01T05:51:02;7.80;99.90
792;DHT22;379;49.022;12.148;2023-04-01T05:53:30;7.90;99.90
792;DHT22;379;49.022;12.148;2023-04-01T05:55:56;7.90;99.90
792;DHT22;379;49.022;12.148;2023-04-01T05:58:23;8.00;99.90
792;DHT22;379;49.022;12.148;2023-04-01T06:00:50;8.10;99.90
792;DHT22;379;49.022;12.148;2023-04-01T06:03:17;8.20;99.90
792;DHT22;379;49.022;12.148;2023-04-01T06:05:44;8.30;99.90
792;DHT22;379;49.022;12.148;2023-04-01T06:08:13;8.30;99.90
792;DHT22;379;49.022;12.148;2023-04-01T06:10:53;8.40;99.90
792;DHT22;379;49.022;12.148;2023-04-01T06:13:29;8.50;99.90
792;DHT22;379;49.022;12.148;2023-04-01T06:16:04;8.60;99.90
792;DHT22;379;49.022;12.148;2023-04-01T06:19:14;8.70;99.90
792;DHT22;379;49.022;12.148;2023-04-01T06:21:55;8.70;99.90
792;DHT22;379;49.022;12.148;2023-04-01T06:24:36;8.80;99.90
792;DHT22;379;49.022;12.148;2023-04-01T06:27:16;8.90;99.90
792;DHT22;379;49.022;12.148;2023-04-01T06:29:55;8.90;99.90
792;DHT22;379;49.022;12.148;2023-04-01T06:32:51;9.00;99.90
792;DHT22;379;49.022;12.148;2023-04-01T06:38:31;9.30;99.90
792;DHT22;379;49.022;12.148;2023-04-01T06:41:21;9.40;99.90
792;DHT22;379;49.022;12.148;2023-04-01T06:43:59;9.40;99.90
792;DHT22;379;49.022;12.148;2023-04-01T06:46:39;9.20;99.90
792;DHT22;379;49.022;12.148;2023-04-01T06:49:32;9.30;99.90
792;DHT22;379;49.022;12.148;2023-04-01T06:52:05;9.30;99.90
792;DHT22;379;49.022;12.148;2023-04-01T06:54:38;9.50;99.90
792;DHT22;379;49.022;12.148;2023-04-01T06:57:18;9.60;99.90
792;DHT22;379;49.022;12.148;2023-04-01T06:59:48;9.80;98.90
792;DHT22;379;49.022;12.148;2023-04-01T07:02:22;9.80;98.40
792;DHT22;379;49.022;12.148;2023-04-01T07:04:53;9.80;97.90
792;DHT22;379;49.022;12.148;2023-04-01T07:07:29;9.80;98.00
792;DHT22;379;49.022;12.148;2023-04-01T07:10:02;9.80;98.20
792;DHT22;379;49.022;12.148;2023-04-01T07:12:36;9.90;97.70
792;DHT22;379;49.022;12.148;2023-04-01T07:15:15;9.90;97.40
792;DHT22;379;49.022;12.148;2023-04-01T07:17:44;9.90;97.50
792;DHT22;379;49.022;12.148;2023-04-01T07:20:15;10.10;97.10
792;DHT22;379;49.022;12.148;2023-04-01T07:22:44;10.40;95.70
792;DHT22;379;49.022;12.148;2023-04-01T07:25:13;10.50;94.80
792;DHT22;379;49.022;12.148;2023-04-01T07:27:41;10.50;95.50
792;DHT22;379;49.022;12.148;2023-04-01T07:30:14;10.80;95.10
792;DHT22;379;49.022;12.148;2023-04-01T07:32:45;11.00;93.60
792;DHT22;379;49.022;12.148;2023-04-01T07:35:21;11.10;93.60
792;DHT22;379;49.022;12.148;2023-04-01T07:38:03;11.10;92.70
792;DHT22;379;49.022;12.148;2023-04-01T07:40:39;11.10;92.70
792;DHT22;379;49.022;12.148;2023-04-01T07:43:23;11.10;92.00
792;DHT22;379;49.022;12.148;2023-04-01T07:46:05;11.20;92.20
792;DHT22;379;49.022;12.148;2023-04-01T07:48:39;11.30;92.30
792;DHT22;379;49.022;12.148;2023-04-01T07:51:15;11.40;91.50
792;DHT22;379;49.022;12.148;2023-04-01T07:53:48;11.60;90.70
792;DHT22;379;49.022;12.148;2023-04-01T07:56:20;11.70;90.50
792;DHT22;379;49.022;12.148;2023-04-01T07:58:57;11.70;90.50
792;DHT22;379;49.022;12.148;2023-04-01T08:01:33;11.80;90.20
792;DHT22;379;49.022;12.148;2023-04-01T08:04:17;11.90;88.70
792;DHT22;379;49.022;12.148;2023-04-01T08:06:51;11.90;88.30
792;DHT22;379;49.022;12.148;2023-04-01T08:09:25;11.90;86.90
792;DHT22;379;49.022;12.148;2023-04-01T08:12:07;11.90;87.30
792;DHT22;379;49.022;12.148;2023-04-01T08:14:45;12.10;87.10
792;DHT22;379;49.022;12.148;2023-04-01T08:17:20;12.20;86.00
792;DHT22;379;49.022;12.148;2023-04-01T08:20:03;12.30;84.00
792;DHT22;379;49.022;12.148;2023-04-01T08:22:38;12.30;83.30
792;DHT22;379;49.022;12.148;2023-04-01T08:25:11;12.40;82.90
792;DHT22;379;49.022;12.148;2023-04-01T08:27:44;12.40;82.40
792;DHT22;379;49.022;12.148;2023-04-01T08:30:17;12.30;82.40
792;DHT22;379;49.022;12.148;2023-04-01T08:32:48;12.30;83.90
792;DHT22;379;49.022;12.148;2023-04-01T08:35:23;12.30;83.80
792;DHT22;379;49.022;12.148;2023-04-01T08:37:53;12.30;83.40
792;DHT22;379;49.022;12.148;2023-04-01T08:40:52;12.40;83.60
792;DHT22;379;49.022;12.148;2023-04-01T08:46:29;12.90;82.30
792;DHT22;379;49.022;12.148;2023-04-01T08:49:19;13.20;79.50
792;DHT22;379;49.022;12.148;2023-04-01T08:52:07;13.50;77.30
792;DHT22;379;49.022;12.148;2023-04-01T08:54:55;13.80;77.50
792;DHT22;379;49.022;12.148;2023-04-01T08:57:38;14.00;75.50
792;DHT22;379;49.022;12.148;2023-04-01T09:00:19;14.10;72.60
792;DHT22;379;49.022;12.148;2023-04-01T09:03:02;14.20;73.50
792;DHT22;379;49.022;12.148;2023-04-01T09:08:48;14.50;71.30
792;DHT22;379;49.022;12.148;2023-04-01T09:11:28;14.50;70.10
792;DHT22;379;49.022;12.148;2023-04-01T09:14:07;14.50;70.70
792;DHT22;379;49.022;12.148;2023-04-01T09:17:02;14.60;70.70
792;DHT22;379;49.022;12.148;2023-04-01T09:19:46;14.80;71.10
792;DHT22;379;49.022;12.148;2023-04-01T09:22:36;14.90;70.20
792;DHT22;379;49.022;12.148;2023-04-01T09:25:26;14.70;68.30
792;DHT22;379;49.022;12.148;2023-04-01T09:28:00;14.60;68.20
792;DHT22;379;49.022;12.148;2023-04-01T09:30:35;14.40;68.40
792;DHT22;379;49.022;12.148;2023-04-01T09:36:24;14.80;68.40
792;DHT22;379;49.022;12.148;2023-04-01T09:38:56;15.00;67.70
792;DHT22;379;49.022;12.148;2023-04-01T09:41:30;15.00;66.90
792;DHT22;379;49.022;12.148;2023-04-01T09:44:06;15.30;68.00
792;DHT22;379;49.022;12.148;2023-04-01T09:46:55;15.50;67.00
792;DHT22;379;49.022;12.148;2023-04-01T09:49:35;15.50;65.80
792;DHT22;379;49.022;12.148;2023-04-01T09:52:14;15.30;65.70
792;DHT22;379;49.022;12.148;2023-04-01T09:54:58;15.10;67.20
792;DHT22;379;49.022;12.148;2023-04-01T10:00:55;15.00;65.80
792;DHT22;379;49.022;12.148;2023-04-01T10:04:23;14.90;66.30
792;DHT22;379;49.022;12.148;2023-04-01T10:10:27;14.50;67.10
792;DHT22;379;49.022;12.148;2023-04-01T10:13:27;14.30;67.50
792;DHT22;379;49.022;12.148;2023-04-01T10:16:15;14.30;66.60
792;DHT22;379;49.022;12.148;2023-04-01T10:19:10;14.20;66.70
792;DHT22;379;49.022;12.148;2023-04-01T10:22:09;14.20;67.30
792;DHT22;379;49.022;12.148;2023-04-01T10:27:47;14.10;67.20
792;DHT22;379;49.022;12.148;2023-04-01T10:36:37;13.90;68.30
792;DHT22;379;49.022;12.148;2023-04-01T10:39:34;13.80;68.70
792;DHT22;379;49.022;12.148;2023-04-01T10:42:28;13.70;69.30
792;DHT22;379;49.022;12.148;2023-04-01T10:48:18;13.70;68.80
792;DHT22;379;49.022;12.148;2023-04-01T10:51:04;13.70;69.10
792;DHT22;379;49.022;12.148;2023-04-01T10:53:46;13.90;69.60
792;DHT22;379;49.022;12.148;2023-04-01T10:56:34;13.80;69.00
792;DHT22;379;49.022;12.148;2023-04-01T10:59:28;13.70;69.60
792;DHT22;379;49.022;12.148;2023-04-01T11:05:40;13.50;69.20
792;DHT22;379;49.022;12.148;2023-04-01T11:21:15;13.40;69.00
792;DHT22;379;49.022;12.148;2023-04-01T11:24:20;13.40;69.40
792;DHT22;379;49.022;12.148;2023-04-01T11:27:01;13.50;69.70
792;DHT22;379;49.022;12.148;2023-04-01T11:32:43;13.50;69.20
792;DHT22;379;49.022;12.148;2023-04-01T11:38:27;13.10;70.10
792;DHT22;379;49.022;12.148;2023-04-01T11:40:59;12.80;72.20
792;DHT22;379;49.022;12.148;2023-04-01T11:43:32;12.60;74.70
792;DHT22;379;49.022;12.148;2023-04-01T11:46:06;12.20;76.50
792;DHT22;379;49.022;12.148;2023-04-01T11:48:44;11.80;79.70
792;DHT22;379;49.022;12.148;2023-04-01T11:51:36;11.80;81.30
792;DHT22;379;49.022;12.148;2023-04-01T11:54:15;11.90;81.70
792;DHT22;379;49.022;12.148;2023-04-01T11:56:55;12.00;82.10
792;DHT22;379;49.022;12.148;2023-04-01T11:59:51;12.10;81.90
792;DHT22;379;49.022;12.148;2023-04-01T12:02:25;12.00;82.40
792;DHT22;379;49.022;12.148;2023-04-01T12:05:00;12.10;82.60
792;DHT22;379;49.022;12.148;2023-04-01T12:07:50;12.20;83.30
792;DHT22;379;49.022;12.148;2023-04-01T12:10:21;12.20;83.80
792;DHT22;379;49.022;12.148;2023-04-01T12:12:59;12.20;84.60
792;DHT22;379;49.022;12.148;2023-04-01T12:15:36;12.10;85.40
792;DHT22;379;49.022;12.148;2023-04-01T12:18:15;12.10;86.00
792;DHT22;379;49.022;12.148;2023-04-01T12:20:49;12.20;86.40
792;DHT22;379;49.022;12.148;2023-04-01T12:29:30;11.70;87.40
792;DHT22;379;49.022;12.148;2023-04-01T12:32:09;11.70;88.00
792;DHT22;379;49.022;12.148;2023-04-01T12:34:51;11.80;88.00
792;DHT22;379;49.022;12.148;2023-04-01T12:37:30;11.80;88.50
792;DHT22;379;49.022;12.148;2023-04-01T12:43:20;11.60;89.10
792;DHT22;379;49.022;12.148;2023-04-01T12:45:57;11.50;90.20
792;DHT22;379;49.022;12.148;2023-04-01T12:48:39;11.50;90.30
792;DHT22;379;49.022;12.148;2023-04-01T12:51:26;11.50;90.60
792;DHT22;379;49.022;12.148;2023-04-01T12:54:14;11.50;90.80
792;DHT22;379;49.022;12.148;2023-04-01T12:56:51;11.60;90.90
792;DHT22;379;49.022;12.148;2023-04-01T12:59:53;11.70;91.10
792;DHT22;379;49.022;12.148;2023-04-01T13:02:34;11.70;91.00
792;DHT22;379;49.022;12.148;2023-04-01T13:05:22;11.50;91.00
792;DHT22;379;49.022;12.148;2023-04-01T13:08:00;11.30;91.60
792;DHT22;379;49.022;12.148;2023-04-01T13:10:40;11.00;91.60
792;DHT22;379;49.022;12.148;2023-04-01T13:13:23;10.70;92.00
792;DHT22;379;49.022;12.148;2023-04-01T13:15:58;10.50;92.50
792;DHT22;379;49.022;12.148;2023-04-01T13:18:36;10.40;93.10
792;DHT22;379;49.022;12.148;2023-04-01T13:21:13;10.40;93.50
792;DHT22;379;49.022;12.148;2023-04-01T13:23:51;10.40;93.20
792;DHT22;379;49.022;12.148;2023-04-01T13:26:24;10.40;93.60
792;DHT22;379;49.022;12.148;2023-04-01T13:28:59;10.40;94.00
792;DHT22;379;49.022;12.148;2023-04-01T13:31:39;10.50;94.00
792;DHT22;379;49.022;12.148;2023-04-01T13:34:22;10.60;94.10
792;DHT22;379;49.022;12.148;2023-04-01T13:37:03;10.70;94.10
792;DHT22;379;49.022;12.148;2023-04-01T13:39:46;10.70;94.20
792;DHT22;379;49.022;12.148;2023-04-01T13:42:22;10.70;94.20
792;DHT22;379;49.022;12.148;2023-04-01T13:44:55;10.60;94.30
792;DHT22;379;49.022;12.148;2023-04-01T13:47:51;10.50;94.60
792;DHT22;379;49.022;12.148;2023-04-01T13:50:37;10.40;95.30
792;DHT22;379;49.022;12.148;2023-04-01T13:53:34;10.40;95.70
792;DHT22;379;49.022;12.148;2023-04-01T13:56:14;10.20;95.80
792;DHT22;379;49.022;12.148;2023-04-01T14:01:52;10.20;96.90
792;DHT22;379;49.022;12.148;2023-04-01T14:04:39;10.30;97.40
792;DHT22;379;49.022;12.148;2023-04-01T14:07:16;10.40;97.50
792;DHT22;379;49.022;12.148;2023-04-01T14:09:57;10.50;97.10
792;DHT22;379;49.022;12.148;2023-04-01T14:12:30;10.60;97.20
792;DHT22;379;49.022;12.148;2023-04-01T14:15:17;10.60;96.90
792;DHT22;379;49.022;12.148;2023-04-01T14:18:02;10.60;96.80
792;DHT22;379;49.022;12.148;2023-04-01T14:20:37;10.70;97.20
792;DHT22;379;49.022;12.148;2023-04-01T14:23:35;10.80;97.40
792;DHT22;379;49.022;12.148;2023-04-01T14:26:16;10.90;97.50
792;DHT22;379;49.022;12.148;2023-04-01T14:28:48;11.00;97.30
792;DHT22;379;49.022;12.148;2023-04-01T14:31:34;10.90;97.30
792;DHT22;379;49.022;12.148;2023-04-01T14:34:15;10.80;97.50
792;DHT22;379;49.022;12.148;2023-04-01T14:36:58;10.80;97.60
792;DHT22;379;49.022;12.148;2023-04-01T14:39:43;10.60;97.70
792;DHT22;379;49.022;12.148;2023-04-01T14:42:29;10.60;97.30
792;DHT22;379;49.022;12.148;2023-04-01T14:45:25;10.60;97.20
792;DHT22;379;49.022;12.148;2023-04-01T14:47:59;10.60;97.10
792;DHT22;379;49.022;12.148;2023-04-01T14:50:41;10.60;97.10
792;DHT22;379;49.022;12.148;2023-04-01T14:53:16;10.60;97.40
792;DHT22;379;49.022;12.148;2023-04-01T14:55:51;10.60;97.10
792;DHT22;379;49.022;12.148;2023-04-01T14:58:20;10.50;97.10
792;DHT22;379;49.022;12.148;2023-04-01T15:00:58;10.40;97.60
792;DHT22;379;49.022;12.148;2023-04-01T15:03:38;10.30;97.80
792;DHT22;379;49.022;12.148;2023-04-01T15:06:26;10.20;98.10
792;DHT22;379;49.022;12.148;2023-04-01T15:09:01;10.10;98.40
792;DHT22;379;49.022;12.148;2023-04-01T15:11:38;10.10;98.80
792;DHT22;379;49.022;12.148;2023-04-01T15:14:21;10.10;98.90
792;DHT22;379;49.022;12.148;2023-04-01T15:16:59;10.10;98.80
792;DHT22;379;49.022;12.148;2023-04-01T15:19:39;10.10;99.20
792;DHT22;379;49.022;12.148;2023-04-01T15:22:24;10.20;99.50
792;DHT22;379;49.022;12.148;2023-04-01T15:25:05;10.20;99.50
792;DHT22;379;49.022;12.148;2023-04-01T15:27:38;10.30;99.70
792;DHT22;379;49.022;12.148;2023-04-01T15:30:21;10.30;99.70
792;DHT22;379;49.022;12.148;2023-04-01T15:32:57;10.40;99.80
792;DHT22;379;49.022;12.148;2023-04-01T15:35:34;10.40;99.60
792;DHT22;379;49.022;12.148;2023-04-01T15:38:08;10.40;99.70
792;DHT22;379;49.022;12.148;2023-04-01T15:40:42;10.40;99.70
792;DHT22;379;49.022;12.148;2023-04-01T15:43:18;10.40;99.80
792;DHT22;379;49.022;12.148;2023-04-01T15:45:58;10.40;99.90
792;DHT22;379;49.022;12.148;2023-04-01T15:48:33;10.30;99.80
792;DHT22;379;49.022;12.148;2023-04-01T15:54:37;10.30;99.90
792;DHT22;379;49.022;12.148;2023-04-01T15:57:23;10.20;99.90
792;DHT22;379;49.022;12.148;2023-04-01T16:00:11;10.20;99.80
792;DHT22;379;49.022;12.148;2023-04-01T16:02:46;10.10;99.70
792;DHT22;379;49.022;12.148;2023-04-01T16:05:30;10.10;99.80
792;DHT22;379;49.022;12.148;2023-04-01T16:11:03;10.10;99.90
792;DHT22;379;49.022;12.148;2023-04-01T16:13:43;10.10;99.90
792;DHT22;379;49.022;12.148;2023-04-01T16:16:19;10.10;99.90
792;DHT22;379;49.022;12.148;2023-04-01T16:19:04;10.10;99.90
792;DHT22;379;49.022;12.148;2023-04-01T16:21:40;10.10;99.90
792;DHT22;379;49.022;12.148;2023-04-01T16:24:15;10.20;99.90
792;DHT22;379;49.022;12.148;2023-04-01T16:26:47;10.10;99.80
792;DHT22;379;49.022;12.148;2023-04-01T16:29:24;10.10;99.70
792;DHT22;379;49.022;12.148;2023-04-01T16:31:55;10.10;99.60
792;DHT22;379;49.022;12.148;2023-04-01T16:34:30;10.00;99.70
792;DHT22;379;49.022;12.148;2023-04-01T16:37:05;10.00;99.90
792;DHT22;379;49.022;12.148;2023-04-01T16:39:44;9.90;99.90
792;DHT22;379;49.022;12.148;2023-04-01T16:42:22;9.90;99.90
792;DHT22;379;49.022;12.148;2023-04-01T16:44:54;9.80;99.90
792;DHT22;379;49.022;12.148;2023-04-01T16:47:22;9.80;99.90
792;DHT22;379;49.022;12.148;2023-04-01T16:49:59;9.70;99.90
792;DHT22;379;49.022;12.148;2023-04-01T16:53:00;9.70;99.90
792;DHT22;379;49.022;12.148;2023-04-01T16:55:45;9.60;99.90
792;DHT22;379;49.022;12.148;2023-04-01T16:58:20;9.60;99.90
792;DHT22;379;49.022;12.148;2023-04-01T17:00:49;9.50;99.90
792;DHT22;379;49.022;12.148;2023-04-01T17:03:20;9.40;99.90
792;DHT22;379;49.022;12.148;2023-04-01T17:06:05;9.40;99.90
792;DHT22;379;49.022;12.148;2023-04-01T17:08:48;9.30;99.90
792;DHT22;379;49.022;12.148;2023-04-01T17:11:19;9.30;99.90
792;DHT22;379;49.022;12.148;2023-04-01T17:13:54;9.20;99.90
792;DHT22;379;49.022;12.148;2023-04-01T17:16:43;9.20;99.90
792;DHT22;379;49.022;12.148;2023-04-01T17:19:21;9.10;99.90
792;DHT22;379;49.022;12.148;2023-04-01T17:21:57;9.10;99.90
792;DHT22;379;49.022;12.148;2023-04-01T17:24:38;9.10;99.90
792;DHT22;379;49.022;12.148;2023-04-01T17:27:18;9.10;99.90
792;DHT22;379;49.022;12.148;2023-04-01T17:30:02;9.00;99.90
792;DHT22;379;49.022;12.148;2023-04-01T17:32:42;9.00;99.90
792;DHT22;379;49.022;12.148;2023-04-01T17:35:19;9.00;99.90
792;DHT22;379;49.022;12.148;2023-04-01T17:38:01;9.00;99.90
792;DHT22;379;49.022;12.148;2023-04-01T17:40:42;9.00;99.90
792;DHT22;379;49.022;12.148;2023-04-01T17:43:20;9.00;99.90
792;DHT22;379;49.022;12.148;2023-04-01T17:45:53;8.90;99.90
792;DHT22;379;49.022;12.148;2023-04-01T17:48:26;8.90;99.90
792;DHT22;379;49.022;12.148;2023-04-01T17:51:08;8.90;99.90
792;DHT22;379;49.022;12.148;2023-04-01T17:53:45;8.90;99.90
792;DHT22;379;49.022;12.148;2023-04-01T17:56:35;8.90;99.90
792;DHT22;379;49.022;12.148;2023-04-01T17:59:10;8.90;99.90
792;DHT22;379;49.022;12.148;2023-04-01T18:01:45;8.90;99.90
792;DHT22;379;49.022;12.148;2023-04-01T18:04:41;8.80;99.90
792;DHT22;379;49.022;12.148;2023-04-01T18:07:29;8.90;99.90
792;DHT22;379;49.022;12.148;2023-04-01T18:10:10;8.90;99.90
792;DHT22;379;49.022;12.148;2023-04-01T18:12:56;8.80;99.90
792;DHT22;379;49.022;12.148;2023-04-01T18:15:31;8.80;99.90
792;DHT22;379;49.022;12.148;2023-04-01T18:18:10;8.80;99.90
792;DHT22;379;49.022;12.148;2023-04-01T18:20:50;8.80;99.90
792;DHT22;379;49.022;12.148;2023-04-01T18:23:27;8.80;99.90
792;DHT22;379;49.022;12.148;2023-04-01T18:26:04;8.80;99.90
792;DHT22;379;49.022;12.148;2023-04-01T18:28:36;8.80;99.90
792;DHT22;379;49.022;12.148;2023-04-01T18:31:11;8.80;99.90
792;DHT22;379;49.022;12.148;2023-04-01T18:33:46;8.80;99.90
792;DHT22;379;49.022;12.148;2023-04-01T18:36:19;8.70;99.90
792;DHT22;379;49.022;12.148;2023-04-01T18:38:50;8.70;99.90